sensor_id;sensor_type;location;lat;lon;timestamp;P1;durP1;ratioP1;P2;durP2;ratioP2
43801;SDS011;29429;51.074;13.764;2023-06-24T00:02:32;20.77;;;13.40;;
43801;SDS011;29429;51.074;13.764;2023-06-24T00:05:03;19.52;;;12.85;;
43801;SDS011;29429;51.074;13.764;2023-06-24T00:07:32;21.55;;;13.43;;
43801;SDS011;29429;51.074;13.764;2023-06-24T00:10:11;23.02;;;15.15;;
43801;SDS011;29429;51.074;13.764;2023-06-24T00:12:39;30.50;;;18.95;;
43801;SDS011;29429;51.074;13.764;2023-06-24T00:15:07;33.03;;;20.27;;
43801;SDS011;29429;51.074;13.764;2023-06-24T00:17:36;37.45;;;19.80;;
43801;SDS011;29429;51.074;13.764;2023-06-24T00:20:04;30.02;;;17.73;;
43801;SDS011;29429;51.074;13.764;2023-06-24T00:22:35;34.65;;;21.15;;
43801;SDS011;29429;51.074;13.764;2023-06-24T00:25:03;27.83;;;17.90;;
43801;SDS011;29429;51.074;13.764;2023-06-24T00:27:31;37.58;;;21.02;;
43801;SDS011;29429;51.074;13.764;2023-06-24T00:29:58;37.28;;;22.55;;
43801;SDS011;29429;51.074;13.764;2023-06-24T00:32:26;38.35;;;21.85;;
43801;SDS011;29429;51.074;13.764;2023-06-24T00:34:53;39.05;;;22.50;;
43801;SDS011;29429;51.074;13.764;2023-06-24T00:37:24;36.85;;;21.55;;
43801;SDS011;29429;51.074;13.764;2023-06-24T00:39:51;32.13;;;19.90;;
43801;SDS011;29429;51.074;13.764;2023-06-24T00:42:19;38.55;;;23.02;;
43801;SDS011;29429;51.074;13.764;2023-06-24T00:44:46;35.42;;;21.88;;
43801;SDS011;29429;51.074;13.764;2023-06-24T00:47:15;40.70;;;23.92;;
43801;SDS011;29429;51.074;13.764;2023-06-24T00:49:43;36.28;;;21.77;;
43801;SDS011;29429;51.074;13.764;2023-06-24T00:52:12;37.78;;;21.92;;
43801;SDS011;29429;51.074;13.764;2023-06-24T00:54:45;40.40;;;23.38;;
43801;SDS011;29429;51.074;13.764;2023-06-24T00:57:12;35.22;;;20.05;;
43801;SDS011;29429;51.074;13.764;2023-06-24T00:59:40;37.28;;;22.15;;
43801;SDS011;29429;51.074;13.764;2023-06-24T01:02:09;42.90;;;23.05;;
43801;SDS011;29429;51.074;13.764;2023-06-24T01:04:38;36.05;;;21.52;;
43801;SDS011;29429;51.074;13.764;2023-06-24T01:07:06;45.20;;;24.40;;
43801;SDS011;29429;51.074;13.764;2023-06-24T01:09:35;38.50;;;21.98;;
43801;SDS011;29429;51.074;13.764;2023-06-24T01:12:03;47.28;;;24.88;;
43801;SDS011;29429;51.074;13.764;2023-06-24T01:14:31;47.83;;;25.40;;
43801;SDS011;29429;51.074;13.764;2023-06-24T01:17:10;47.13;;;25.17;;
43801;SDS011;29429;51.074;13.764;2023-06-24T01:37:19;39.95;;;22.98;;
43801;SDS011;29429;51.074;13.764;2023-06-24T01:40:02;48.50;;;26.52;;
43801;SDS011;29429;51.074;13.764;2023-06-24T01:42:40;57.55;;;28.63;;
43801;SDS011;29429;51.074;13.764;2023-06-24T01:45:10;52.05;;;26.83;;
43801;SDS011;29429;51.074;13.764;2023-06-24T01:47:43;56.75;;;29.73;;
43801;SDS011;29429;51.074;13.764;2023-06-24T01:50:13;58.63;;;30.05;;
43801;SDS011;29429;51.074;13.764;2023-06-24T01:52:46;47.85;;;27.40;;
43801;SDS011;29429;51.074;13.764;2023-06-24T01:55:17;55.47;;;29.80;;
43801;SDS011;29429;51.074;13.764;2023-06-24T01:57:47;54.10;;;29.13;;
43801;SDS011;29429;51.074;13.764;2023-06-24T02:00:16;48.03;;;26.17;;
43801;SDS011;29429;51.074;13.764;2023-06-24T02:02:47;54.90;;;30.08;;
43801;SDS011;29429;51.074;13.764;2023-06-24T02:05:17;52.20;;;27.65;;
43801;SDS011;29429;51.074;13.764;2023-06-24T02:07:46;68.00;;;33.67;;
43801;SDS011;29429;51.074;13.764;2023-06-24T02:10:15;57.80;;;31.98;;
43801;SDS011;29429;51.074;13.764;2023-06-24T02:12:45;61.88;;;30.77;;
43801;SDS011;29429;51.074;13.764;2023-06-24T02:15:14;56.70;;;30.75;;
43801;SDS011;29429;51.074;13.764;2023-06-24T02:17:43;67.00;;;32.78;;
43801;SDS011;29429;51.074;13.764;2023-06-24T02:20:14;61.40;;;32.38;;
43801;SDS011;29429;51.074;13.764;2023-06-24T02:22:44;67.75;;;32.47;;
43801;SDS011;29429;51.074;13.764;2023-06-24T02:25:11;56.70;;;31.38;;
43801;SDS011;29429;51.074;13.764;2023-06-24T02:27:39;68.60;;;34.80;;
43801;SDS011;29429;51.074;13.764;2023-06-24T02:30:07;71.47;;;33.75;;
43801;SDS011;29429;51.074;13.764;2023-06-24T02:32:36;59.78;;;32.55;;
43801;SDS011;29429;51.074;13.764;2023-06-24T02:35:04;65.90;;;34.83;;
43801;SDS011;29429;51.074;13.764;2023-06-24T02:37:34;57.47;;;33.17;;
43801;SDS011;29429;51.074;13.764;2023-06-24T02:40:01;68.35;;;32.45;;
43801;SDS011;29429;51.074;13.764;2023-06-24T02:42:31;62.72;;;33.10;;
43801;SDS011;29429;51.074;13.764;2023-06-24T02:44:58;58.20;;;31.08;;
43801;SDS011;29429;51.074;13.764;2023-06-24T02:47:26;60.72;;;31.17;;
43801;SDS011;29429;51.074;13.764;2023-06-24T02:49:55;72.72;;;35.40;;
43801;SDS011;29429;51.074;13.764;2023-06-24T02:52:24;61.53;;;31.35;;
43801;SDS011;29429;51.074;13.764;2023-06-24T02:54:56;57.72;;;33.40;;
43801;SDS011;29429;51.074;13.764;2023-06-24T02:57:25;68.20;;;34.38;;
43801;SDS011;29429;51.074;13.764;2023-06-24T03:00:32;68.03;;;34.88;;
43801;SDS011;29429;51.074;13.764;2023-06-24T03:03:09;70.43;;;36.63;;
43801;SDS011;29429;51.074;13.764;2023-06-24T03:05:44;63.70;;;34.13;;
43801;SDS011;29429;51.074;13.764;2023-06-24T03:08:15;67.82;;;35.22;;
43801;SDS011;29429;51.074;13.764;2023-06-24T03:10:44;60.97;;;32.67;;
43801;SDS011;29429;51.074;13.764;2023-06-24T03:13:17;62.78;;;33.63;;
43801;SDS011;29429;51.074;13.764;2023-06-24T03:15:50;63.15;;;33.95;;
43801;SDS011;29429;51.074;13.764;2023-06-24T03:18:18;65.28;;;34.60;;
43801;SDS011;29429;51.074;13.764;2023-06-24T03:20:47;68.38;;;36.17;;
43801;SDS011;29429;51.074;13.764;2023-06-24T03:23:18;63.30;;;33.38;;
43801;SDS011;29429;51.074;13.764;2023-06-24T03:25:45;60.67;;;34.05;;
43801;SDS011;29429;51.074;13.764;2023-06-24T03:28:14;64.07;;;34.00;;
43801;SDS011;29429;51.074;13.764;2023-06-24T03:30:46;59.30;;;32.38;;
43801;SDS011;29429;51.074;13.764;2023-06-24T03:33:17;59.38;;;32.85;;
43801;SDS011;29429;51.074;13.764;2023-06-24T03:35:45;62.53;;;34.00;;
43801;SDS011;29429;51.074;13.764;2023-06-24T03:38:17;68.90;;;35.63;;
43801;SDS011;29429;51.074;13.764;2023-06-24T03:40:45;59.47;;;32.88;;
43801;SDS011;29429;51.074;13.764;2023-06-24T03:43:13;73.95;;;37.67;;
43801;SDS011;29429;51.074;13.764;2023-06-24T03:45:41;69.65;;;35.92;;
43801;SDS011;29429;51.074;13.764;2023-06-24T03:48:08;69.82;;;35.78;;
43801;SDS011;29429;51.074;13.764;2023-06-24T03:50:36;71.28;;;36.47;;
43801;SDS011;29429;51.074;13.764;2023-06-24T03:53:03;57.83;;;33.33;;
43801;SDS011;29429;51.074;13.764;2023-06-24T03:55:32;62.63;;;33.30;;
43801;SDS011;29429;51.074;13.764;2023-06-24T03:57:59;70.78;;;34.83;;
43801;SDS011;29429;51.074;13.764;2023-06-24T04:00:27;73.72;;;37.17;;
43801;SDS011;29429;51.074;13.764;2023-06-24T04:02:54;70.80;;;38.60;;
43801;SDS011;29429;51.074;13.764;2023-06-24T04:05:22;63.53;;;34.00;;
43801;SDS011;29429;51.074;13.764;2023-06-24T04:07:51;67.55;;;36.13;;
43801;SDS011;29429;51.074;13.764;2023-06-24T04:10:19;66.60;;;35.92;;
43801;SDS011;29429;51.074;13.764;2023-06-24T04:12:46;62.55;;;33.30;;
43801;SDS011;29429;51.074;13.764;2023-06-24T04:15:13;73.07;;;37.80;;
43801;SDS011;29429;51.074;13.764;2023-06-24T04:17:41;71.45;;;38.58;;
43801;SDS011;29429;51.074;13.764;2023-06-24T04:20:08;68.90;;;36.33;;
43801;SDS011;29429;51.074;13.764;2023-06-24T04:22:37;60.63;;;33.92;;
43801;SDS011;29429;51.074;13.764;2023-06-24T04:25:06;59.15;;;34.65;;
43801;SDS011;29429;51.074;13.764;2023-06-24T04:27:34;64.20;;;34.47;;
43801;SDS011;29429;51.074;13.764;2023-06-24T04:30:05;63.40;;;35.33;;
43801;SDS011;29429;51.074;13.764;2023-06-24T04:32:33;52.22;;;31.20;;
43801;SDS011;29429;51.074;13.764;2023-06-24T04:35:01;55.95;;;32.65;;
43801;SDS011;29429;51.074;13.764;2023-06-24T04:37:32;55.95;;;31.67;;
43801;SDS011;29429;51.074;13.764;2023-06-24T04:40:00;53.25;;;32.30;;
43801;SDS011;29429;51.074;13.764;2023-06-24T04:42:27;50.85;;;30.55;;
43801;SDS011;29429;51.074;13.764;2023-06-24T04:44:54;42.83;;;28.67;;
43801;SDS011;29429;51.074;13.764;2023-06-24T04:47:22;47.28;;;29.60;;
43801;SDS011;29429;51.074;13.764;2023-06-24T04:49:49;48.47;;;29.42;;
43801;SDS011;29429;51.074;13.764;2023-06-24T04:52:17;43.85;;;28.10;;
43801;SDS011;29429;51.074;13.764;2023-06-24T04:54:44;48.45;;;27.58;;
43801;SDS011;29429;51.074;13.764;2023-06-24T04:57:23;43.47;;;28.13;;
43801;SDS011;29429;51.074;13.764;2023-06-24T04:59:52;44.13;;;26.83;;
43801;SDS011;29429;51.074;13.764;2023-06-24T05:02:20;43.90;;;27.40;;
43801;SDS011;29429;51.074;13.764;2023-06-24T05:04:47;42.28;;;27.65;;
43801;SDS011;29429;51.074;13.764;2023-06-24T05:07:15;41.38;;;27.48;;
43801;SDS011;29429;51.074;13.764;2023-06-24T05:09:42;45.25;;;27.00;;
43801;SDS011;29429;51.074;13.764;2023-06-24T05:12:13;39.63;;;25.42;;
43801;SDS011;29429;51.074;13.764;2023-06-24T05:14:40;42.72;;;27.75;;
43801;SDS011;29429;51.074;13.764;2023-06-24T05:17:08;45.40;;;31.33;;
43801;SDS011;29429;51.074;13.764;2023-06-24T05:19:35;51.47;;;29.20;;
43801;SDS011;29429;51.074;13.764;2023-06-24T05:22:03;42.55;;;28.85;;
43801;SDS011;29429;51.074;13.764;2023-06-24T05:24:30;36.67;;;25.65;;
43801;SDS011;29429;51.074;13.764;2023-06-24T05:27:03;34.95;;;26.35;;
43801;SDS011;29429;51.074;13.764;2023-06-24T05:29:35;36.97;;;27.02;;
43801;SDS011;29429;51.074;13.764;2023-06-24T05:32:02;40.30;;;27.77;;
43801;SDS011;29429;51.074;13.764;2023-06-24T05:34:30;38.13;;;28.92;;
43801;SDS011;29429;51.074;13.764;2023-06-24T05:36:58;40.72;;;28.40;;
43801;SDS011;29429;51.074;13.764;2023-06-24T05:39:26;39.38;;;28.85;;
43801;SDS011;29429;51.074;13.764;2023-06-24T05:41:53;39.92;;;29.00;;
43801;SDS011;29429;51.074;13.764;2023-06-24T05:44:21;45.85;;;31.23;;
43801;SDS011;29429;51.074;13.764;2023-06-24T05:46:49;46.45;;;32.95;;
43801;SDS011;29429;51.074;13.764;2023-06-24T05:49:17;46.92;;;30.85;;
43801;SDS011;29429;51.074;13.764;2023-06-24T05:51:44;45.55;;;33.10;;
43801;SDS011;29429;51.074;13.764;2023-06-24T05:54:12;44.25;;;30.52;;
43801;SDS011;29429;51.074;13.764;2023-06-24T05:56:39;45.85;;;30.05;;
43801;SDS011;29429;51.074;13.764;2023-06-24T05:59:06;53.30;;;33.05;;
43801;SDS011;29429;51.074;13.764;2023-06-24T06:01:34;42.13;;;31.90;;
43801;SDS011;29429;51.074;13.764;2023-06-24T06:04:01;46.80;;;31.88;;
43801;SDS011;29429;51.074;13.764;2023-06-24T06:06:29;47.25;;;31.98;;
43801;SDS011;29429;51.074;13.764;2023-06-24T06:08:56;55.22;;;32.92;;
43801;SDS011;29429;51.074;13.764;2023-06-24T06:11:24;51.95;;;31.55;;
43801;SDS011;29429;51.074;13.764;2023-06-24T06:13:51;51.90;;;33.03;;
43801;SDS011;29429;51.074;13.764;2023-06-24T06:16:19;50.78;;;31.25;;
43801;SDS011;29429;51.074;13.764;2023-06-24T06:18:46;55.30;;;31.98;;
43801;SDS011;29429;51.074;13.764;2023-06-24T06:21:14;48.60;;;30.95;;
43801;SDS011;29429;51.074;13.764;2023-06-24T06:23:41;49.58;;;30.92;;
43801;SDS011;29429;51.074;13.764;2023-06-24T06:26:09;49.40;;;30.75;;
43801;SDS011;29429;51.074;13.764;2023-06-24T06:28:36;42.92;;;30.17;;
43801;SDS011;29429;51.074;13.764;2023-06-24T06:31:03;52.33;;;32.58;;
43801;SDS011;29429;51.074;13.764;2023-06-24T06:33:31;48.45;;;29.75;;
43801;SDS011;29429;51.074;13.764;2023-06-24T06:35:58;51.85;;;33.53;;
43801;SDS011;29429;51.074;13.764;2023-06-24T06:38:26;47.13;;;30.88;;
43801;SDS011;29429;51.074;13.764;2023-06-24T06:40:53;50.83;;;29.50;;
43801;SDS011;29429;51.074;13.764;2023-06-24T06:43:21;49.55;;;30.95;;
43801;SDS011;29429;51.074;13.764;2023-06-24T06:45:48;46.70;;;30.15;;
43801;SDS011;29429;51.074;13.764;2023-06-24T06:48:16;43.95;;;28.75;;
43801;SDS011;29429;51.074;13.764;2023-06-24T06:50:44;41.47;;;29.20;;
43801;SDS011;29429;51.074;13.764;2023-06-24T06:53:12;43.65;;;28.23;;
43801;SDS011;29429;51.074;13.764;2023-06-24T06:55:39;41.28;;;28.80;;
43801;SDS011;29429;51.074;13.764;2023-06-24T06:58:09;41.80;;;27.73;;
43801;SDS011;29429;51.074;13.764;2023-06-24T07:00:36;46.97;;;30.77;;
43801;SDS011;29429;51.074;13.764;2023-06-24T07:03:04;45.58;;;29.58;;
43801;SDS011;29429;51.074;13.764;2023-06-24T07:05:31;43.20;;;29.95;;
43801;SDS011;29429;51.074;13.764;2023-06-24T07:08:02;40.22;;;27.98;;
43801;SDS011;29429;51.074;13.764;2023-06-24T07:10:29;46.03;;;29.90;;
43801;SDS011;29429;51.074;13.764;2023-06-24T07:12:57;35.55;;;26.63;;
43801;SDS011;29429;51.074;13.764;2023-06-24T07:15:27;38.22;;;27.63;;
43801;SDS011;29429;51.074;13.764;2023-06-24T07:17:55;36.13;;;26.52;;
43801;SDS011;29429;51.074;13.764;2023-06-24T07:20:22;42.78;;;27.83;;
43801;SDS011;29429;51.074;13.764;2023-06-24T07:22:50;34.97;;;26.30;;
43801;SDS011;29429;51.074;13.764;2023-06-24T07:25:18;41.72;;;27.02;;
43801;SDS011;29429;51.074;13.764;2023-06-24T07:27:45;34.88;;;26.17;;
43801;SDS011;29429;51.074;13.764;2023-06-24T07:30:13;43.90;;;29.02;;
43801;SDS011;29429;51.074;13.764;2023-06-24T07:32:40;35.75;;;24.92;;
43801;SDS011;29429;51.074;13.764;2023-06-24T07:35:08;31.60;;;23.73;;
43801;SDS011;29429;51.074;13.764;2023-06-24T07:37:36;34.10;;;25.08;;
43801;SDS011;29429;51.074;13.764;2023-06-24T07:40:05;32.85;;;25.20;;
43801;SDS011;29429;51.074;13.764;2023-06-24T07:42:34;28.77;;;23.35;;
43801;SDS011;29429;51.074;13.764;2023-06-24T07:45:01;28.05;;;22.27;;
43801;SDS011;29429;51.074;13.764;2023-06-24T07:47:29;30.92;;;20.90;;
43801;SDS011;29429;51.074;13.764;2023-06-24T07:49:58;26.77;;;20.48;;
43801;SDS011;29429;51.074;13.764;2023-06-24T07:52:25;24.63;;;19.70;;
43801;SDS011;29429;51.074;13.764;2023-06-24T07:54:53;24.67;;;19.40;;
43801;SDS011;29429;51.074;13.764;2023-06-24T07:57:20;25.50;;;18.58;;
43801;SDS011;29429;51.074;13.764;2023-06-24T07:59:47;24.00;;;18.63;;
43801;SDS011;29429;51.074;13.764;2023-06-24T08:02:15;23.70;;;17.80;;
43801;SDS011;29429;51.074;13.764;2023-06-24T08:04:42;25.48;;;18.15;;
43801;SDS011;29429;51.074;13.764;2023-06-24T08:07:10;24.88;;;15.88;;
43801;SDS011;29429;51.074;13.764;2023-06-24T08:09:38;18.90;;;15.57;;
43801;SDS011;29429;51.074;13.764;2023-06-24T08:12:05;18.85;;;14.32;;
43801;SDS011;29429;51.074;13.764;2023-06-24T08:14:33;16.42;;;13.93;;
43801;SDS011;29429;51.074;13.764;2023-06-24T08:17:01;19.00;;;14.40;;
43801;SDS011;29429;51.074;13.764;2023-06-24T08:19:29;16.88;;;13.30;;
43801;SDS011;29429;51.074;13.764;2023-06-24T08:21:56;18.85;;;13.68;;
43801;SDS011;29429;51.074;13.764;2023-06-24T08:24:23;16.38;;;12.50;;
43801;SDS011;29429;51.074;13.764;2023-06-24T08:26:51;15.23;;;11.95;;
43801;SDS011;29429;51.074;13.764;2023-06-24T08:29:19;14.77;;;11.13;;
43801;SDS011;29429;51.074;13.764;2023-06-24T08:31:46;13.25;;;11.68;;
43801;SDS011;29429;51.074;13.764;2023-06-24T08:34:14;14.68;;;11.55;;
43801;SDS011;29429;51.074;13.764;2023-06-24T08:36:41;17.33;;;10.95;;
43801;SDS011;29429;51.074;13.764;2023-06-24T08:39:08;15.10;;;10.93;;
43801;SDS011;29429;51.074;13.764;2023-06-24T08:41:36;18.35;;;10.73;;
43801;SDS011;29429;51.074;13.764;2023-06-24T08:44:03;12.85;;;9.75;;
43801;SDS011;29429;51.074;13.764;2023-06-24T08:46:31;13.77;;;9.40;;
43801;SDS011;29429;51.074;13.764;2023-06-24T08:49:02;11.63;;;9.23;;
43801;SDS011;29429;51.074;13.764;2023-06-24T08:52:00;11.98;;;9.73;;
43801;SDS011;29429;51.074;13.764;2023-06-24T08:54:35;12.32;;;9.48;;
43801;SDS011;29429;51.074;13.764;2023-06-24T08:57:03;11.15;;;7.90;;
43801;SDS011;29429;51.074;13.764;2023-06-24T08:59:34;9.93;;;7.97;;
43801;SDS011;29429;51.074;13.764;2023-06-24T09:02:03;11.43;;;8.32;;
43801;SDS011;29429;51.074;13.764;2023-06-24T09:04:30;12.20;;;8.05;;
43801;SDS011;29429;51.074;13.764;2023-06-24T09:06:58;13.70;;;8.23;;
43801;SDS011;29429;51.074;13.764;2023-06-24T09:09:25;9.52;;;7.43;;
43801;SDS011;29429;51.074;13.764;2023-06-24T09:11:55;13.25;;;7.30;;
43801;SDS011;29429;51.074;13.764;2023-06-24T09:14:24;9.80;;;6.93;;
43801;SDS011;29429;51.074;13.764;2023-06-24T09:16:56;10.43;;;6.60;;
43801;SDS011;29429;51.074;13.764;2023-06-24T09:19:27;11.10;;;6.40;;
43801;SDS011;29429;51.074;13.764;2023-06-24T09:22:09;7.03;;;5.95;;
43801;SDS011;29429;51.074;13.764;2023-06-24T09:24:44;9.52;;;6.57;;
43801;SDS011;29429;51.074;13.764;2023-06-24T09:27:13;6.63;;;5.68;;
43801;SDS011;29429;51.074;13.764;2023-06-24T09:29:42;9.02;;;6.30;;
43801;SDS011;29429;51.074;13.764;2023-06-24T09:32:10;6.90;;;6.18;;
43801;SDS011;29429;51.074;13.764;2023-06-24T09:34:38;9.73;;;6.68;;
43801;SDS011;29429;51.074;13.764;2023-06-24T09:37:05;9.38;;;6.47;;
43801;SDS011;29429;51.074;13.764;2023-06-24T09:39:36;8.50;;;6.35;;
43801;SDS011;29429;51.074;13.764;2023-06-24T09:42:06;8.68;;;6.15;;
43801;SDS011;29429;51.074;13.764;2023-06-24T09:44:33;6.30;;;5.55;;
43801;SDS011;29429;51.074;13.764;2023-06-24T09:47:01;6.75;;;5.75;;
43801;SDS011;29429;51.074;13.764;2023-06-24T09:49:29;9.73;;;5.13;;
43801;SDS011;29429;51.074;13.764;2023-06-24T09:51:57;7.47;;;5.70;;
43801;SDS011;29429;51.074;13.764;2023-06-24T09:54:28;7.72;;;6.25;;
43801;SDS011;29429;51.074;13.764;2023-06-24T09:57:01;10.07;;;5.78;;
43801;SDS011;29429;51.074;13.764;2023-06-24T09:59:30;6.82;;;5.40;;
43801;SDS011;29429;51.074;13.764;2023-06-24T10:02:00;6.82;;;5.65;;
43801;SDS011;29429;51.074;13.764;2023-06-24T10:04:30;6.18;;;5.47;;
43801;SDS011;29429;51.074;13.764;2023-06-24T10:06:59;7.75;;;5.30;;
43801;SDS011;29429;51.074;13.764;2023-06-24T10:09:26;6.32;;;5.50;;
43801;SDS011;29429;51.074;13.764;2023-06-24T10:11:54;6.55;;;5.15;;
43801;SDS011;29429;51.074;13.764;2023-06-24T10:14:21;6.72;;;5.10;;
43801;SDS011;29429;51.074;13.764;2023-06-24T10:16:49;6.38;;;4.88;;
43801;SDS011;29429;51.074;13.764;2023-06-24T10:19:20;8.73;;;5.85;;
43801;SDS011;29429;51.074;13.764;2023-06-24T10:21:57;5.68;;;4.60;;
43801;SDS011;29429;51.074;13.764;2023-06-24T10:24:32;8.52;;;5.43;;
43801;SDS011;29429;51.074;13.764;2023-06-24T10:27:02;6.63;;;5.35;;
43801;SDS011;29429;51.074;13.764;2023-06-24T10:39:38;7.57;;;5.07;;
43801;SDS011;29429;51.074;13.764;2023-06-24T10:42:24;7.50;;;4.35;;
43801;SDS011;29429;51.074;13.764;2023-06-24T10:47:27;9.27;;;4.88;;
43801;SDS011;29429;51.074;13.764;2023-06-24T10:49:56;4.78;;;4.30;;
43801;SDS011;29429;51.074;13.764;2023-06-24T10:52:23;9.05;;;4.70;;
43801;SDS011;29429;51.074;13.764;2023-06-24T10:54:51;6.45;;;4.82;;
43801;SDS011;29429;51.074;13.764;2023-06-24T10:57:20;7.78;;;5.10;;
43801;SDS011;29429;51.074;13.764;2023-06-24T10:59:50;6.68;;;4.65;;
43801;SDS011;29429;51.074;13.764;2023-06-24T11:02:24;8.77;;;4.93;;
43801;SDS011;29429;51.074;13.764;2023-06-24T11:04:54;4.88;;;4.35;;
43801;SDS011;29429;51.074;13.764;2023-06-24T11:07:29;5.75;;;4.78;;
43801;SDS011;29429;51.074;13.764;2023-06-24T11:12:32;5.10;;;4.60;;
43801;SDS011;29429;51.074;13.764;2023-06-24T11:15:04;8.00;;;5.18;;
43801;SDS011;29429;51.074;13.764;2023-06-24T11:17:36;6.10;;;5.00;;
43801;SDS011;29429;51.074;13.764;2023-06-24T11:20:08;8.50;;;5.80;;
43801;SDS011;29429;51.074;13.764;2023-06-24T11:22:36;7.20;;;5.13;;
43801;SDS011;29429;51.074;13.764;2023-06-24T11:25:05;10.80;;;5.65;;
43801;SDS011;29429;51.074;13.764;2023-06-24T11:27:40;7.95;;;5.20;;
43801;SDS011;29429;51.074;13.764;2023-06-24T11:30:07;6.03;;;5.20;;
43801;SDS011;29429;51.074;13.764;2023-06-24T11:32:38;5.00;;;4.50;;
43801;SDS011;29429;51.074;13.764;2023-06-24T11:35:08;7.20;;;5.40;;
43801;SDS011;29429;51.074;13.764;2023-06-24T11:37:36;7.47;;;5.05;;
43801;SDS011;29429;51.074;13.764;2023-06-24T11:40:07;9.55;;;5.07;;
43801;SDS011;29429;51.074;13.764;2023-06-24T11:42:36;7.97;;;5.13;;
43801;SDS011;29429;51.074;13.764;2023-06-24T11:45:05;6.07;;;4.88;;
43801;SDS011;29429;51.074;13.764;2023-06-24T11:47:34;5.30;;;4.80;;
43801;SDS011;29429;51.074;13.764;2023-06-24T11:50:04;5.70;;;5.10;;
43801;SDS011;29429;51.074;13.764;2023-06-24T11:55:16;8.32;;;5.28;;
43801;SDS011;29429;51.074;13.764;2023-06-24T11:58:00;8.25;;;5.18;;
43801;SDS011;29429;51.074;13.764;2023-06-24T12:00:40;6.22;;;5.60;;
43801;SDS011;29429;51.074;13.764;2023-06-24T12:03:10;8.57;;;5.25;;
43801;SDS011;29429;51.074;13.764;2023-06-24T12:05:39;6.32;;;5.15;;
43801;SDS011;29429;51.074;13.764;2023-06-24T12:08:12;5.50;;;4.88;;
43801;SDS011;29429;51.074;13.764;2023-06-24T12:10:42;5.63;;;4.72;;
43801;SDS011;29429;51.074;13.764;2023-06-24T12:13:10;6.13;;;4.60;;
43801;SDS011;29429;51.074;13.764;2023-06-24T12:15:38;6.93;;;4.85;;
43801;SDS011;29429;51.074;13.764;2023-06-24T12:18:06;5.45;;;4.32;;
43801;SDS011;29429;51.074;13.764;2023-06-24T12:20:34;6.20;;;5.35;;
43801;SDS011;29429;51.074;13.764;2023-06-24T12:23:04;5.50;;;4.82;;
43801;SDS011;29429;51.074;13.764;2023-06-24T12:25:32;7.10;;;4.57;;
43801;SDS011;29429;51.074;13.764;2023-06-24T12:28:00;7.05;;;4.68;;
43801;SDS011;29429;51.074;13.764;2023-06-24T12:30:27;6.38;;;4.20;;
43801;SDS011;29429;51.074;13.764;2023-06-24T12:32:55;7.03;;;4.70;;
43801;SDS011;29429;51.074;13.764;2023-06-24T12:35:23;5.55;;;4.78;;
43801;SDS011;29429;51.074;13.764;2023-06-24T12:37:52;6.28;;;4.65;;
43801;SDS011;29429;51.074;13.764;2023-06-24T12:40:19;10.60;;;4.93;;
43801;SDS011;29429;51.074;13.764;2023-06-24T12:42:46;7.35;;;4.70;;
43801;SDS011;29429;51.074;13.764;2023-06-24T12:45:14;7.95;;;5.10;;
43801;SDS011;29429;51.074;13.764;2023-06-24T12:47:41;5.53;;;4.65;;
43801;SDS011;29429;51.074;13.764;2023-06-24T12:50:09;5.78;;;4.82;;
43801;SDS011;29429;51.074;13.764;2023-06-24T12:52:36;5.05;;;4.53;;
43801;SDS011;29429;51.074;13.764;2023-06-24T12:55:05;8.70;;;4.70;;
43801;SDS011;29429;51.074;13.764;2023-06-24T12:57:34;9.25;;;4.32;;
43801;SDS011;29429;51.074;13.764;2023-06-24T13:00:03;5.82;;;4.55;;
43801;SDS011;29429;51.074;13.764;2023-06-24T13:02:35;5.55;;;4.57;;
43801;SDS011;29429;51.074;13.764;2023-06-24T13:05:06;6.68;;;4.82;;
43801;SDS011;29429;51.074;13.764;2023-06-24T13:07:33;5.45;;;4.50;;
43801;SDS011;29429;51.074;13.764;2023-06-24T13:10:01;10.38;;;4.53;;
43801;SDS011;29429;51.074;13.764;2023-06-24T13:12:32;5.18;;;4.68;;
43801;SDS011;29429;51.074;13.764;2023-06-24T13:15:00;6.47;;;4.32;;
43801;SDS011;29429;51.074;13.764;2023-06-24T13:17:30;5.38;;;4.32;;
43801;SDS011;29429;51.074;13.764;2023-06-24T13:19:58;6.13;;;4.43;;
43801;SDS011;29429;51.074;13.764;2023-06-24T13:22:26;5.15;;;4.45;;
43801;SDS011;29429;51.074;13.764;2023-06-24T13:24:53;4.78;;;4.25;;
43801;SDS011;29429;51.074;13.764;2023-06-24T13:27:20;5.97;;;4.00;;
43801;SDS011;29429;51.074;13.764;2023-06-24T13:29:53;4.95;;;4.45;;
43801;SDS011;29429;51.074;13.764;2023-06-24T13:32:20;6.85;;;4.28;;
43801;SDS011;29429;51.074;13.764;2023-06-24T13:34:48;5.07;;;4.57;;
43801;SDS011;29429;51.074;13.764;2023-06-24T13:37:15;7.97;;;4.93;;
43801;SDS011;29429;51.074;13.764;2023-06-24T13:39:42;5.03;;;4.05;;
43801;SDS011;29429;51.074;13.764;2023-06-24T13:42:10;4.35;;;3.70;;
43801;SDS011;29429;51.074;13.764;2023-06-24T13:44:38;4.55;;;4.15;;
43801;SDS011;29429;51.074;13.764;2023-06-24T13:47:06;5.07;;;4.13;;
43801;SDS011;29429;51.074;13.764;2023-06-24T13:49:34;5.82;;;4.65;;
43801;SDS011;29429;51.074;13.764;2023-06-24T13:52:51;5.10;;;4.38;;
43801;SDS011;29429;51.074;13.764;2023-06-24T13:55:19;4.30;;;3.50;;
43801;SDS011;29429;51.074;13.764;2023-06-24T13:57:46;7.15;;;4.10;;
43801;SDS011;29429;51.074;13.764;2023-06-24T14:00:14;4.68;;;4.28;;
43801;SDS011;29429;51.074;13.764;2023-06-24T14:02:42;6.95;;;4.22;;
43801;SDS011;29429;51.074;13.764;2023-06-24T14:05:09;7.07;;;4.85;;
43801;SDS011;29429;51.074;13.764;2023-06-24T14:07:37;5.93;;;4.20;;
43801;SDS011;29429;51.074;13.764;2023-06-24T14:10:04;7.18;;;4.30;;
43801;SDS011;29429;51.074;13.764;2023-06-24T14:12:32;5.82;;;4.45;;
43801;SDS011;29429;51.074;13.764;2023-06-24T14:14:59;4.47;;;4.00;;
43801;SDS011;29429;51.074;13.764;2023-06-24T14:17:27;6.65;;;4.40;;
43801;SDS011;29429;51.074;13.764;2023-06-24T14:19:55;7.53;;;4.75;;
43801;SDS011;29429;51.074;13.764;2023-06-24T14:22:22;4.32;;;3.53;;
43801;SDS011;29429;51.074;13.764;2023-06-24T14:24:52;5.75;;;3.90;;
43801;SDS011;29429;51.074;13.764;2023-06-24T14:27:19;5.63;;;3.78;;
43801;SDS011;29429;51.074;13.764;2023-06-24T14:29:47;6.63;;;3.85;;
43801;SDS011;29429;51.074;13.764;2023-06-24T14:32:14;5.82;;;3.90;;
43801;SDS011;29429;51.074;13.764;2023-06-24T14:34:41;4.40;;;4.00;;
43801;SDS011;29429;51.074;13.764;2023-06-24T14:37:09;4.35;;;3.38;;
43801;SDS011;29429;51.074;13.764;2023-06-24T14:39:36;8.52;;;3.75;;
43801;SDS011;29429;51.074;13.764;2023-06-24T14:42:05;4.00;;;3.50;;
43801;SDS011;29429;51.074;13.764;2023-06-24T14:44:33;5.13;;;4.40;;
43801;SDS011;29429;51.074;13.764;2023-06-24T14:47:00;6.18;;;3.92;;
43801;SDS011;29429;51.074;13.764;2023-06-24T14:49:29;4.90;;;3.95;;
43801;SDS011;29429;51.074;13.764;2023-06-24T14:51:57;4.97;;;3.63;;
43801;SDS011;29429;51.074;13.764;2023-06-24T14:54:24;5.00;;;4.22;;
43801;SDS011;29429;51.074;13.764;2023-06-24T14:56:52;4.85;;;3.90;;
43801;SDS011;29429;51.074;13.764;2023-06-24T14:59:19;6.00;;;3.58;;
43801;SDS011;29429;51.074;13.764;2023-06-24T15:01:46;5.43;;;3.90;;
43801;SDS011;29429;51.074;13.764;2023-06-24T15:04:14;4.65;;;3.80;;
43801;SDS011;29429;51.074;13.764;2023-06-24T15:06:41;5.55;;;3.72;;